• Join FlightAware (Why Join?)
  • Login
  • US Flag 
01:27AM EDT


 

Airport Tracker/Info


-or-


 

Live Flight TrackerFlight Track Log ✈ PDT4480 ✈ 19-Apr-2013 ✈ KISP - KPHL

Flight Track Log - Related Links

Times and Time Zones

All times are in EDT time to prevent confusion due to time zone crossing. See the PDT4480 flight status page for this flight to view local times or setup timezone preferences in your user account.

Time Position Orientation Groundspeed Altitude Reporting Facility
EDT Latitude Longitude Course Direction KTS MPH feet Rate Location/Type
04:50PM 40.7580 -72.8315 102° East  Level FlightAware Approximate
04:50PM 40.7861 -72.9939 88° East 151 174 3,900  Level Boston Center
04:51PM 40.7500 -72.7423 90° East  Level FlightAware Approximate
04:51PM 40.7822 -72.9306 95° East 170 196 4,700  Level Boston Center
04:52PM 40.7404 -72.6546 114° Southeast  Level FlightAware Approximate
04:52PM 40.7719 -72.8647 102° East 184 212 5,700  Level Boston Center
04:53PM 40.7333 -72.5663 90° East  Level FlightAware Approximate
04:53PM 40.7619 -72.7936 100° East 189 217 6,500  Level Boston Center
04:54PM 40.7494 -72.7222 103° East 195 224 7,500 1,020 Climbing Boston Center
04:55PM 40.7164 -72.6619 126° Southeast 195 224 8,600 840 Climbing Boston Center
04:56PM 40.6894 -72.6044 122° Southeast 195 224 9,400 780 Climbing Boston Center
04:57PM 40.6600 -72.6317 215° Southwest 92 106 10,400 780 Climbing Boston Center
04:58PM 40.6289 -72.6644 219° Southwest 106 122 11,000 600 Climbing Boston Center
04:59PM 40.5994 -72.6997 222° Southwest 134 154 11,700 240 Climbing Boston Center
05:01PM 40.5239 -72.7833 220° Southwest 168 193 11,900 60 Climbing New York Center
05:02PM 40.4814 -72.8367 224° Southwest 192 221 11,900  Level New York Center
05:03PM 40.4472 -72.8819 225° Southwest 198 228 11,900  Level New York Center
05:04PM 40.4067 -72.9353 225° Southwest 198 228 11,900  Level New York Center
05:05PM 40.3725 -72.9750 222° Southwest 198 228 11,900  Level New York Center
05:06PM 40.3278 -73.0281 222° Southwest 198 228 11,900  Level New York Center
05:07PM 40.2936 -73.0731 225° Southwest 198 228 11,900  Level New York Center
05:08PM 40.2486 -73.1233 220° Southwest 198 228 11,900  Level New York Center